sensor_id;sensor_type;location;lat;lon;timestamp;temperature;humidity
67196;DHT22;54122;53.538;49.366;2022-09-27T00:00:22;10.30;82.80
67196;DHT22;54122;53.538;49.366;2022-09-27T00:02:48;10.30;82.80
67196;DHT22;54122;53.538;49.366;2022-09-27T00:05:14;10.30;82.70
67196;DHT22;54122;53.538;49.366;2022-09-27T00:07:41;10.30;82.70
67196;DHT22;54122;53.538;49.366;2022-09-27T00:10:08;10.30;82.70
67196;DHT22;54122;53.538;49.366;2022-09-27T00:12:34;10.30;82.60
67196;DHT22;54122;53.538;49.366;2022-09-27T00:15:00;10.30;82.60
67196;DHT22;54122;53.538;49.366;2022-09-27T00:17:27;10.30;82.70
67196;DHT22;54122;53.538;49.366;2022-09-27T00:19:53;10.30;82.70
67196;DHT22;54122;53.538;49.366;2022-09-27T00:22:22;10.30;82.70
67196;DHT22;54122;53.538;49.366;2022-09-27T00:24:49;10.30;82.80
67196;DHT22;54122;53.538;49.366;2022-09-27T00:27:15;10.30;82.80
67196;DHT22;54122;53.538;49.366;2022-09-27T00:29:43;10.30;82.80
67196;DHT22;54122;53.538;49.366;2022-09-27T00:32:09;10.30;83.00
67196;DHT22;54122;53.538;49.366;2022-09-27T00:34:36;10.30;82.80
67196;DHT22;54122;53.538;49.366;2022-09-27T00:37:02;10.30;82.90
67196;DHT22;54122;53.538;49.366;2022-09-27T00:39:28;10.20;82.90
67196;DHT22;54122;53.538;49.366;2022-09-27T00:41:54;10.20;83.00
67196;DHT22;54122;53.538;49.366;2022-09-27T00:47:01;10.20;83.80
67196;DHT22;54122;53.538;49.366;2022-09-27T00:49:32;10.20;83.20
67196;DHT22;54122;53.538;49.366;2022-09-27T00:52:03;10.20;83.30
67196;DHT22;54122;53.538;49.366;2022-09-27T00:54:30;10.20;83.30
67196;DHT22;54122;53.538;49.366;2022-09-27T00:56:56;10.20;83.30
67196;DHT22;54122;53.538;49.366;2022-09-27T00:59:25;10.20;83.30
67196;DHT22;54122;53.538;49.366;2022-09-27T01:01:53;10.20;83.40
67196;DHT22;54122;53.538;49.366;2022-09-27T01:04:29;10.10;83.50
67196;DHT22;54122;53.538;49.366;2022-09-27T01:06:55;10.10;83.50
67196;DHT22;54122;53.538;49.366;2022-09-27T01:09:21;10.10;83.60
67196;DHT22;54122;53.538;49.366;2022-09-27T01:14:27;10.00;83.90
67196;DHT22;54122;53.538;49.366;2022-09-27T01:22:15;10.00;84.20
67196;DHT22;54122;53.538;49.366;2022-09-27T01:35:03;9.90;84.60
67196;DHT22;54122;53.538;49.366;2022-09-27T01:40:08;9.90;84.90
67196;DHT22;54122;53.538;49.366;2022-09-27T01:42:45;9.90;85.20
67196;DHT22;54122;53.538;49.366;2022-09-27T01:45:20;9.80;85.10
67196;DHT22;54122;53.538;49.366;2022-09-27T01:47:53;9.80;85.10
67196;DHT22;54122;53.538;49.366;2022-09-27T01:52:50;9.80;85.60
67196;DHT22;54122;53.538;49.366;2022-09-27T01:55:18;9.70;85.60
67196;DHT22;54122;53.538;49.366;2022-09-27T01:57:47;9.70;85.80
67196;DHT22;54122;53.538;49.366;2022-09-27T02:00:15;9.60;86.10
67196;DHT22;54122;53.538;49.366;2022-09-27T02:02:46;9.60;86.30
67196;DHT22;54122;53.538;49.366;2022-09-27T02:05:13;9.60;86.70
67196;DHT22;54122;53.538;49.366;2022-09-27T02:08:26;9.60;86.90
67196;DHT22;54122;53.538;49.366;2022-09-27T02:10:36;9.60;86.90
67196;DHT22;54122;53.538;49.366;2022-09-27T02:13:26;9.50;86.90
67196;DHT22;54122;53.538;49.366;2022-09-27T02:18:46;9.50;87.40
67196;DHT22;54122;53.538;49.366;2022-09-27T02:21:14;9.40;87.70
67196;DHT22;54122;53.538;49.366;2022-09-27T02:24:01;9.30;88.10
67196;DHT22;54122;53.538;49.366;2022-09-27T02:26:38;9.30;88.40
67196;DHT22;54122;53.538;49.366;2022-09-27T02:29:15;9.20;88.60
67196;DHT22;54122;53.538;49.366;2022-09-27T02:31:44;9.10;89.00
67196;DHT22;54122;53.538;49.366;2022-09-27T02:34:12;9.00;89.30
67196;DHT22;54122;53.538;49.366;2022-09-27T02:36:40;8.90;89.80
67196;DHT22;54122;53.538;49.366;2022-09-27T02:39:06;8.80;90.10
67196;DHT22;54122;53.538;49.366;2022-09-27T02:41:32;8.80;90.30
67196;DHT22;54122;53.538;49.366;2022-09-27T02:44:01;8.70;90.40
67196;DHT22;54122;53.538;49.366;2022-09-27T02:52:20;8.50;90.90
67196;DHT22;54122;53.538;49.366;2022-09-27T02:57:12;8.40;91.10
67196;DHT22;54122;53.538;49.366;2022-09-27T03:04:39;8.30;91.70
67196;DHT22;54122;53.538;49.366;2022-09-27T03:07:08;8.20;91.90
67196;DHT22;54122;53.538;49.366;2022-09-27T03:09:46;8.20;92.10
67196;DHT22;54122;53.538;49.366;2022-09-27T03:12:13;8.20;92.30
67196;DHT22;54122;53.538;49.366;2022-09-27T03:14:39;8.30;92.30
67196;DHT22;54122;53.538;49.366;2022-09-27T03:17:05;8.30;92.20
67196;DHT22;54122;53.538;49.366;2022-09-27T03:19:31;8.20;92.30
67196;DHT22;54122;53.538;49.366;2022-09-27T03:21:57;8.20;92.40
67196;DHT22;54122;53.538;49.366;2022-09-27T03:24:23;8.20;92.50
67196;DHT22;54122;53.538;49.366;2022-09-27T03:26:49;8.30;92.50
67196;DHT22;54122;53.538;49.366;2022-09-27T03:29:15;8.40;92.90
67196;DHT22;54122;53.538;49.366;2022-09-27T03:31:41;8.60;93.80
67196;DHT22;54122;53.538;49.366;2022-09-27T03:34:08;9.10;94.20
67196;DHT22;54122;53.538;49.366;2022-09-27T03:36:34;10.30;93.00
67196;DHT22;54122;53.538;49.366;2022-09-27T03:39:00;11.70;89.80
67196;DHT22;54122;53.538;49.366;2022-09-27T03:41:26;12.30;84.60
67196;DHT22;54122;53.538;49.366;2022-09-27T03:43:52;12.90;83.10
67196;DHT22;54122;53.538;49.366;2022-09-27T03:46:21;13.80;80.30
67196;DHT22;54122;53.538;49.366;2022-09-27T03:48:47;14.20;77.60
67196;DHT22;54122;53.538;49.366;2022-09-27T03:51:13;14.50;76.70
67196;DHT22;54122;53.538;49.366;2022-09-27T03:53:39;14.70;76.00
67196;DHT22;54122;53.538;49.366;2022-09-27T03:56:05;15.20;75.80
67196;DHT22;54122;53.538;49.366;2022-09-27T03:58:31;15.90;73.90
67196;DHT22;54122;53.538;49.366;2022-09-27T04:00:57;16.50;70.80
67196;DHT22;54122;53.538;49.366;2022-09-27T04:03:23;17.00;69.60
67196;DHT22;54122;53.538;49.366;2022-09-27T04:05:54;17.70;68.20
67196;DHT22;54122;53.538;49.366;2022-09-27T04:08:20;18.30;66.10
67196;DHT22;54122;53.538;49.366;2022-09-27T04:10:47;18.70;63.50
67196;DHT22;54122;53.538;49.366;2022-09-27T04:13:13;19.00;61.00
67196;DHT22;54122;53.538;49.366;2022-09-27T04:15:39;18.80;59.80
67196;DHT22;54122;53.538;49.366;2022-09-27T04:18:05;18.60;60.00
67196;DHT22;54122;53.538;49.366;2022-09-27T04:20:31;18.80;60.00
67196;DHT22;54122;53.538;49.366;2022-09-27T04:22:59;19.00;58.10
67196;DHT22;54122;53.538;49.366;2022-09-27T04:25:25;19.10;56.60
67196;DHT22;54122;53.538;49.366;2022-09-27T04:27:51;19.30;56.10
67196;DHT22;54122;53.538;49.366;2022-09-27T04:30:20;19.50;55.20
67196;DHT22;54122;53.538;49.366;2022-09-27T04:32:46;19.90;55.20
67196;DHT22;54122;53.538;49.366;2022-09-27T04:35:13;20.40;53.50
67196;DHT22;54122;53.538;49.366;2022-09-27T04:37:58;20.60;52.40
67196;DHT22;54122;53.538;49.366;2022-09-27T04:40:27;20.60;50.90
67196;DHT22;54122;53.538;49.366;2022-09-27T04:42:56;20.60;50.80
67196;DHT22;54122;53.538;49.366;2022-09-27T04:45:29;20.50;50.30
67196;DHT22;54122;53.538;49.366;2022-09-27T04:47:55;20.50;49.10
67196;DHT22;54122;53.538;49.366;2022-09-27T04:50:38;20.00;49.20
67196;DHT22;54122;53.538;49.366;2022-09-27T04:53:05;19.20;50.90
67196;DHT22;54122;53.538;49.366;2022-09-27T04:55:31;19.20;51.50
67196;DHT22;54122;53.538;49.366;2022-09-27T04:57:58;19.80;51.20
67196;DHT22;54122;53.538;49.366;2022-09-27T05:00:26;20.30;48.40
67196;DHT22;54122;53.538;49.366;2022-09-27T05:02:53;19.80;48.40
67196;DHT22;54122;53.538;49.366;2022-09-27T05:05:19;19.90;49.70
67196;DHT22;54122;53.538;49.366;2022-09-27T05:07:45;20.40;48.50
67196;DHT22;54122;53.538;49.366;2022-09-27T05:10:11;20.50;48.00
67196;DHT22;54122;53.538;49.366;2022-09-27T05:12:37;21.00;47.30
67196;DHT22;54122;53.538;49.366;2022-09-27T05:15:03;21.70;45.40
67196;DHT22;54122;53.538;49.366;2022-09-27T05:17:30;21.70;45.60
67196;DHT22;54122;53.538;49.366;2022-09-27T05:19:56;22.20;44.60
67196;DHT22;54122;53.538;49.366;2022-09-27T05:22:22;23.10;43.70
67196;DHT22;54122;53.538;49.366;2022-09-27T05:24:48;23.70;41.30
67196;DHT22;54122;53.538;49.366;2022-09-27T05:27:16;23.80;40.70
67196;DHT22;54122;53.538;49.366;2022-09-27T05:29:45;24.00;40.20
67196;DHT22;54122;53.538;49.366;2022-09-27T05:32:11;24.10;39.30
67196;DHT22;54122;53.538;49.366;2022-09-27T05:34:38;23.60;39.80
67196;DHT22;54122;53.538;49.366;2022-09-27T05:37:04;23.40;39.50
67196;DHT22;54122;53.538;49.366;2022-09-27T05:39:30;23.30;40.20
67196;DHT22;54122;53.538;49.366;2022-09-27T05:41:56;23.70;40.50
67196;DHT22;54122;53.538;49.366;2022-09-27T05:44:22;24.50;39.00
67196;DHT22;54122;53.538;49.366;2022-09-27T05:46:51;24.90;37.80
67196;DHT22;54122;53.538;49.366;2022-09-27T05:49:24;25.20;35.90
67196;DHT22;54122;53.538;49.366;2022-09-27T05:51:53;25.50;35.40
67196;DHT22;54122;53.538;49.366;2022-09-27T05:54:22;25.00;34.60
67196;DHT22;54122;53.538;49.366;2022-09-27T05:56:48;24.10;35.80
67196;DHT22;54122;53.538;49.366;2022-09-27T05:59:15;24.00;36.00
67196;DHT22;54122;53.538;49.366;2022-09-27T06:01:41;24.10;36.20
67196;DHT22;54122;53.538;49.366;2022-09-27T06:04:07;24.50;35.70
67196;DHT22;54122;53.538;49.366;2022-09-27T06:06:36;25.00;35.30
67196;DHT22;54122;53.538;49.366;2022-09-27T06:09:03;25.50;34.00
67196;DHT22;54122;53.538;49.366;2022-09-27T06:11:29;25.90;33.00
67196;DHT22;54122;53.538;49.366;2022-09-27T06:13:55;26.20;32.70
67196;DHT22;54122;53.538;49.366;2022-09-27T06:16:22;26.20;31.00
67196;DHT22;54122;53.538;49.366;2022-09-27T06:18:48;24.90;32.00
67196;DHT22;54122;53.538;49.366;2022-09-27T06:21:14;22.80;34.70
67196;DHT22;54122;53.538;49.366;2022-09-27T06:23:40;21.20;38.10
67196;DHT22;54122;53.538;49.366;2022-09-27T06:26:06;20.40;41.00
67196;DHT22;54122;53.538;49.366;2022-09-27T06:28:32;21.30;40.60
67196;DHT22;54122;53.538;49.366;2022-09-27T06:31:03;22.60;38.60
67196;DHT22;54122;53.538;49.366;2022-09-27T06:33:29;23.90;36.00
67196;DHT22;54122;53.538;49.366;2022-09-27T06:35:55;25.00;34.40
67196;DHT22;54122;53.538;49.366;2022-09-27T06:38:21;25.30;32.40
67196;DHT22;54122;53.538;49.366;2022-09-27T06:40:48;25.60;32.80
67196;DHT22;54122;53.538;49.366;2022-09-27T06:43:15;25.80;31.20
67196;DHT22;54122;53.538;49.366;2022-09-27T06:45:42;24.70;32.00
67196;DHT22;54122;53.538;49.366;2022-09-27T06:48:08;23.20;33.90
67196;DHT22;54122;53.538;49.366;2022-09-27T06:50:36;22.30;36.00
67196;DHT22;54122;53.538;49.366;2022-09-27T06:53:03;21.60;37.30
67196;DHT22;54122;53.538;49.366;2022-09-27T06:55:29;21.40;39.00
67196;DHT22;54122;53.538;49.366;2022-09-27T06:57:56;22.20;37.70
67196;DHT22;54122;53.538;49.366;2022-09-27T07:00:41;23.20;35.70
67196;DHT22;54122;53.538;49.366;2022-09-27T07:03:08;23.70;34.70
67196;DHT22;54122;53.538;49.366;2022-09-27T07:05:34;23.50;35.10
67196;DHT22;54122;53.538;49.366;2022-09-27T07:08:00;23.40;35.00
67196;DHT22;54122;53.538;49.366;2022-09-27T07:10:27;23.80;34.40
67196;DHT22;54122;53.538;49.366;2022-09-27T07:12:54;24.20;32.90
67196;DHT22;54122;53.538;49.366;2022-09-27T07:15:20;25.00;32.30
67196;DHT22;54122;53.538;49.366;2022-09-27T07:17:47;25.50;31.00
67196;DHT22;54122;53.538;49.366;2022-09-27T07:20:13;25.90;30.60
67196;DHT22;54122;53.538;49.366;2022-09-27T07:22:40;26.20;30.20
67196;DHT22;54122;53.538;49.366;2022-09-27T07:25:07;26.40;29.60
67196;DHT22;54122;53.538;49.366;2022-09-27T07:27:33;25.30;30.20
67196;DHT22;54122;53.538;49.366;2022-09-27T07:30:00;24.60;31.50
67196;DHT22;54122;53.538;49.366;2022-09-27T07:32:26;24.60;32.10
67196;DHT22;54122;53.538;49.366;2022-09-27T07:34:52;24.80;31.30
67196;DHT22;54122;53.538;49.366;2022-09-27T07:37:18;25.00;31.30
67196;DHT22;54122;53.538;49.366;2022-09-27T07:39:44;25.40;31.10
67196;DHT22;54122;53.538;49.366;2022-09-27T07:42:10;25.40;29.90
67196;DHT22;54122;53.538;49.366;2022-09-27T07:44:36;25.20;30.30
67196;DHT22;54122;53.538;49.366;2022-09-27T07:47:05;25.40;30.10
67196;DHT22;54122;53.538;49.366;2022-09-27T07:49:31;25.80;30.00
67196;DHT22;54122;53.538;49.366;2022-09-27T07:51:57;26.00;29.50
67196;DHT22;54122;53.538;49.366;2022-09-27T07:54:23;26.10;29.50
67196;DHT22;54122;53.538;49.366;2022-09-27T07:56:49;26.30;28.90
67196;DHT22;54122;53.538;49.366;2022-09-27T07:59:15;26.10;28.60
67196;DHT22;54122;53.538;49.366;2022-09-27T08:01:41;26.00;29.00
67196;DHT22;54122;53.538;49.366;2022-09-27T08:04:07;26.00;28.90
67196;DHT22;54122;53.538;49.366;2022-09-27T08:06:33;26.10;28.80
67196;DHT22;54122;53.538;49.366;2022-09-27T08:08:59;26.20;28.90
67196;DHT22;54122;53.538;49.366;2022-09-27T08:11:26;26.00;29.10
67196;DHT22;54122;53.538;49.366;2022-09-27T08:13:52;25.30;28.80
67196;DHT22;54122;53.538;49.366;2022-09-27T08:16:18;23.70;30.70
67196;DHT22;54122;53.538;49.366;2022-09-27T08:18:44;23.10;33.40
67196;DHT22;54122;53.538;49.366;2022-09-27T08:21:10;23.40;33.10
67196;DHT22;54122;53.538;49.366;2022-09-27T08:23:36;23.70;32.50
67196;DHT22;54122;53.538;49.366;2022-09-27T08:26:02;24.10;31.90
67196;DHT22;54122;53.538;49.366;2022-09-27T08:28:28;24.40;31.30
67196;DHT22;54122;53.538;49.366;2022-09-27T08:30:56;24.70;30.90
67196;DHT22;54122;53.538;49.366;2022-09-27T08:33:23;24.90;30.80
67196;DHT22;54122;53.538;49.366;2022-09-27T08:35:50;25.30;31.20
67196;DHT22;54122;53.538;49.366;2022-09-27T08:38:16;25.60;29.40
67196;DHT22;54122;53.538;49.366;2022-09-27T08:40:48;25.90;28.90
67196;DHT22;54122;53.538;49.366;2022-09-27T08:45:48;25.90;28.80
67196;DHT22;54122;53.538;49.366;2022-09-27T08:48:17;26.00;28.70
67196;DHT22;54122;53.538;49.366;2022-09-27T08:50:43;26.10;28.30
67196;DHT22;54122;53.538;49.366;2022-09-27T08:55:55;25.80;28.40
67196;DHT22;54122;53.538;49.366;2022-09-27T09:01:10;25.50;28.30
67196;DHT22;54122;53.538;49.366;2022-09-27T09:03:37;25.40;29.60
67196;DHT22;54122;53.538;49.366;2022-09-27T09:11:26;25.20;29.00
67196;DHT22;54122;53.538;49.366;2022-09-27T09:22:17;23.50;30.80
67196;DHT22;54122;53.538;49.366;2022-09-27T09:35:29;21.20;34.60
67196;DHT22;54122;53.538;49.366;2022-09-27T09:38:01;21.10;35.00
67196;DHT22;54122;53.538;49.366;2022-09-27T09:40:31;20.90;35.60
67196;DHT22;54122;53.538;49.366;2022-09-27T09:43:03;20.70;36.00
67196;DHT22;54122;53.538;49.366;2022-09-27T09:45:32;20.40;36.60
67196;DHT22;54122;53.538;49.366;2022-09-27T09:48:09;20.20;37.30
67196;DHT22;54122;53.538;49.366;2022-09-27T09:50:44;20.00;38.10
67196;DHT22;54122;53.538;49.366;2022-09-27T09:55:37;19.80;38.60
67196;DHT22;54122;53.538;49.366;2022-09-27T09:58:11;19.50;38.20
67196;DHT22;54122;53.538;49.366;2022-09-27T10:00:39;19.10;38.50
67196;DHT22;54122;53.538;49.366;2022-09-27T10:03:05;18.80;39.60
67196;DHT22;54122;53.538;49.366;2022-09-27T10:05:31;18.60;39.90
67196;DHT22;54122;53.538;49.366;2022-09-27T10:07:59;18.40;40.40
67196;DHT22;54122;53.538;49.366;2022-09-27T10:10:26;18.40;40.40
67196;DHT22;54122;53.538;49.366;2022-09-27T10:12:52;18.40;40.60
67196;DHT22;54122;53.538;49.366;2022-09-27T10:15:23;18.50;40.90
67196;DHT22;54122;53.538;49.366;2022-09-27T10:17:52;18.60;41.10
67196;DHT22;54122;53.538;49.366;2022-09-27T10:20:27;18.60;40.50
67196;DHT22;54122;53.538;49.366;2022-09-27T10:23:00;18.30;40.30
67196;DHT22;54122;53.538;49.366;2022-09-27T10:25:43;18.10;41.00
67196;DHT22;54122;53.538;49.366;2022-09-27T10:28:10;18.00;41.20
67196;DHT22;54122;53.538;49.366;2022-09-27T10:30:54;18.10;41.10
67196;DHT22;54122;53.538;49.366;2022-09-27T10:33:20;18.20;40.60
67196;DHT22;54122;53.538;49.366;2022-09-27T10:35:47;18.30;38.90
67196;DHT22;54122;53.538;49.366;2022-09-27T10:40:46;18.10;38.60
67196;DHT22;54122;53.538;49.366;2022-09-27T10:43:23;18.00;38.50
67196;DHT22;54122;53.538;49.366;2022-09-27T10:45:49;18.00;38.30
67196;DHT22;54122;53.538;49.366;2022-09-27T10:48:19;18.00;38.20
67196;DHT22;54122;53.538;49.366;2022-09-27T10:50:57;18.00;38.30
67196;DHT22;54122;53.538;49.366;2022-09-27T10:53:24;18.10;38.10
67196;DHT22;54122;53.538;49.366;2022-09-27T10:55:50;18.20;38.50
67196;DHT22;54122;53.538;49.366;2022-09-27T10:58:18;18.20;38.60
67196;DHT22;54122;53.538;49.366;2022-09-27T11:00:52;18.40;38.90
67196;DHT22;54122;53.538;49.366;2022-09-27T11:03:19;18.40;38.20
67196;DHT22;54122;53.538;49.366;2022-09-27T11:05:45;18.50;38.10
67196;DHT22;54122;53.538;49.366;2022-09-27T11:10:43;18.60;37.70
67196;DHT22;54122;53.538;49.366;2022-09-27T11:18:16;18.50;37.30
67196;DHT22;54122;53.538;49.366;2022-09-27T11:20:50;18.30;37.90
67196;DHT22;54122;53.538;49.366;2022-09-27T11:36:48;18.40;39.90
67196;DHT22;54122;53.538;49.366;2022-09-27T11:39:25;18.20;40.00
67196;DHT22;54122;53.538;49.366;2022-09-27T11:42:21;18.10;40.40
67196;DHT22;54122;53.538;49.366;2022-09-27T11:44:50;18.00;40.50
67196;DHT22;54122;53.538;49.366;2022-09-27T11:50:09;17.90;40.70
67196;DHT22;54122;53.538;49.366;2022-09-27T12:06:05;17.20;42.00
67196;DHT22;54122;53.538;49.366;2022-09-27T12:08:47;17.00;42.60
67196;DHT22;54122;53.538;49.366;2022-09-27T12:16:22;16.70;43.60
67196;DHT22;54122;53.538;49.366;2022-09-27T12:18:49;16.70;43.70
67196;DHT22;54122;53.538;49.366;2022-09-27T12:21:17;16.70;44.10
67196;DHT22;54122;53.538;49.366;2022-09-27T12:23:44;16.70;44.10
67196;DHT22;54122;53.538;49.366;2022-09-27T12:26:12;16.60;44.20
67196;DHT22;54122;53.538;49.366;2022-09-27T12:36:20;16.50;45.20
67196;DHT22;54122;53.538;49.366;2022-09-27T12:39:02;16.50;45.40
67196;DHT22;54122;53.538;49.366;2022-09-27T12:41:30;16.40;45.60
67196;DHT22;54122;53.538;49.366;2022-09-27T12:43:59;16.30;45.90
67196;DHT22;54122;53.538;49.366;2022-09-27T12:51:18;16.00;46.50
67196;DHT22;54122;53.538;49.366;2022-09-27T13:01:49;16.00;47.70
67196;DHT22;54122;53.538;49.366;2022-09-27T13:07:00;15.80;48.50
67196;DHT22;54122;53.538;49.366;2022-09-27T13:14:26;15.60;50.20
67196;DHT22;54122;53.538;49.366;2022-09-27T13:16:53;15.50;50.70
67196;DHT22;54122;53.538;49.366;2022-09-27T13:22:39;15.30;52.30
67196;DHT22;54122;53.538;49.366;2022-09-27T13:24:55;15.10;52.80
67196;DHT22;54122;53.538;49.366;2022-09-27T13:29:48;14.80;55.10
67196;DHT22;54122;53.538;49.366;2022-09-27T13:32:15;14.70;55.70
67196;DHT22;54122;53.538;49.366;2022-09-27T13:34:43;14.60;55.80
67196;DHT22;54122;53.538;49.366;2022-09-27T13:42:44;14.30;57.10
67196;DHT22;54122;53.538;49.366;2022-09-27T13:45:22;14.20;57.70
67196;DHT22;54122;53.538;49.366;2022-09-27T13:47:50;14.00;58.10
67196;DHT22;54122;53.538;49.366;2022-09-27T13:50:23;14.00;59.20
67196;DHT22;54122;53.538;49.366;2022-09-27T13:53:23;13.80;59.30
67196;DHT22;54122;53.538;49.366;2022-09-27T13:55:46;13.70;59.80
67196;DHT22;54122;53.538;49.366;2022-09-27T14:00:42;13.50;60.80
67196;DHT22;54122;53.538;49.366;2022-09-27T14:03:51;13.40;61.40
67196;DHT22;54122;53.538;49.366;2022-09-27T14:06:04;13.30;61.80
67196;DHT22;54122;53.538;49.366;2022-09-27T14:08:38;13.20;62.20
67196;DHT22;54122;53.538;49.366;2022-09-27T14:11:12;13.20;62.70
67196;DHT22;54122;53.538;49.366;2022-09-27T14:13:39;13.10;62.80
67196;DHT22;54122;53.538;49.366;2022-09-27T14:16:06;13.00;63.30
67196;DHT22;54122;53.538;49.366;2022-09-27T14:18:33;12.90;63.90
67196;DHT22;54122;53.538;49.366;2022-09-27T14:23:46;12.70;65.30
67196;DHT22;54122;53.538;49.366;2022-09-27T14:26:46;12.60;65.70
67196;DHT22;54122;53.538;49.366;2022-09-27T14:29:17;12.60;66.00
67196;DHT22;54122;53.538;49.366;2022-09-27T14:31:43;12.50;66.40
67196;DHT22;54122;53.538;49.366;2022-09-27T14:34:12;12.50;66.60
67196;DHT22;54122;53.538;49.366;2022-09-27T14:36:38;12.40;67.00
67196;DHT22;54122;53.538;49.366;2022-09-27T14:39:32;12.30;67.50
67196;DHT22;54122;53.538;49.366;2022-09-27T14:42:02;12.30;67.90
67196;DHT22;54122;53.538;49.366;2022-09-27T14:44:29;12.20;68.10
67196;DHT22;54122;53.538;49.366;2022-09-27T14:49:34;12.20;68.70
67196;DHT22;54122;53.538;49.366;2022-09-27T14:52:00;12.10;68.90
67196;DHT22;54122;53.538;49.366;2022-09-27T14:54:27;12.10;69.10
67196;DHT22;54122;53.538;49.366;2022-09-27T14:56:55;12.10;69.20
67196;DHT22;54122;53.538;49.366;2022-09-27T14:59:26;12.10;69.40
67196;DHT22;54122;53.538;49.366;2022-09-27T15:02:01;12.20;70.80
67196;DHT22;54122;53.538;49.366;2022-09-27T15:04:30;12.20;69.90
67196;DHT22;54122;53.538;49.366;2022-09-27T15:06:59;12.30;69.80
67196;DHT22;54122;53.538;49.366;2022-09-27T15:09:26;12.30;70.00
67196;DHT22;54122;53.538;49.366;2022-09-27T15:11:57;12.30;69.60
67196;DHT22;54122;53.538;49.366;2022-09-27T15:14:25;12.20;70.00
67196;DHT22;54122;53.538;49.366;2022-09-27T15:16:53;12.20;70.20
67196;DHT22;54122;53.538;49.366;2022-09-27T15:19:24;12.10;70.60
67196;DHT22;54122;53.538;49.366;2022-09-27T15:21:51;12.00;71.00
67196;DHT22;54122;53.538;49.366;2022-09-27T15:24:37;12.00;70.90
67196;DHT22;54122;53.538;49.366;2022-09-27T15:27:04;11.90;71.20
67196;DHT22;54122;53.538;49.366;2022-09-27T15:29:30;11.90;71.50
67196;DHT22;54122;53.538;49.366;2022-09-27T15:32:01;11.80;71.90
67196;DHT22;54122;53.538;49.366;2022-09-27T15:34:28;11.70;72.20
67196;DHT22;54122;53.538;49.366;2022-09-27T15:36:56;11.70;72.70
67196;DHT22;54122;53.538;49.366;2022-09-27T15:39:27;11.60;72.70
67196;DHT22;54122;53.538;49.366;2022-09-27T15:42:26;11.60;72.90
67196;DHT22;54122;53.538;49.366;2022-09-27T15:49:57;11.50;73.20
67196;DHT22;54122;53.538;49.366;2022-09-27T15:52:44;11.50;73.30
67196;DHT22;54122;53.538;49.366;2022-09-27T15:55:12;11.60;73.50
67196;DHT22;54122;53.538;49.366;2022-09-27T15:57:39;11.60;73.60
67196;DHT22;54122;53.538;49.366;2022-09-27T16:00:10;11.70;73.80
67196;DHT22;54122;53.538;49.366;2022-09-27T16:02:37;11.70;73.50
67196;DHT22;54122;53.538;49.366;2022-09-27T16:05:03;11.70;73.40
67196;DHT22;54122;53.538;49.366;2022-09-27T16:07:29;11.80;73.30
67196;DHT22;54122;53.538;49.366;2022-09-27T16:09:55;11.90;73.10
67196;DHT22;54122;53.538;49.366;2022-09-27T16:12:21;11.90;72.90
67196;DHT22;54122;53.538;49.366;2022-09-27T16:14:47;11.90;72.80
67196;DHT22;54122;53.538;49.366;2022-09-27T16:17:13;11.90;72.60
67196;DHT22;54122;53.538;49.366;2022-09-27T16:19:39;11.90;72.50
67196;DHT22;54122;53.538;49.366;2022-09-27T16:22:05;11.90;72.60
67196;DHT22;54122;53.538;49.366;2022-09-27T16:24:31;11.80;72.70
67196;DHT22;54122;53.538;49.366;2022-09-27T16:26:58;11.80;73.10
67196;DHT22;54122;53.538;49.366;2022-09-27T16:29:24;11.70;73.10
67196;DHT22;54122;53.538;49.366;2022-09-27T16:31:50;11.70;73.20
67196;DHT22;54122;53.538;49.366;2022-09-27T16:34:18;11.70;73.50
67196;DHT22;54122;53.538;49.366;2022-09-27T16:36:44;11.60;73.50
67196;DHT22;54122;53.538;49.366;2022-09-27T16:39:11;11.60;73.90
67196;DHT22;54122;53.538;49.366;2022-09-27T16:41:37;11.70;74.00
67196;DHT22;54122;53.538;49.366;2022-09-27T16:44:06;11.70;73.80
67196;DHT22;54122;53.538;49.366;2022-09-27T16:46:32;11.60;73.80
67196;DHT22;54122;53.538;49.366;2022-09-27T16:48:59;11.60;73.80
67196;DHT22;54122;53.538;49.366;2022-09-27T16:51:28;11.50;73.90
67196;DHT22;54122;53.538;49.366;2022-09-27T16:54:13;11.50;74.10
67196;DHT22;54122;53.538;49.366;2022-09-27T16:56:42;11.50;74.20
67196;DHT22;54122;53.538;49.366;2022-09-27T16:59:09;11.40;74.10
67196;DHT22;54122;53.538;49.366;2022-09-27T17:01:35;11.30;74.60
67196;DHT22;54122;53.538;49.366;2022-09-27T17:04:01;11.30;74.70
67196;DHT22;54122;53.538;49.366;2022-09-27T17:06:27;11.30;74.70
67196;DHT22;54122;53.538;49.366;2022-09-27T17:08:56;11.30;74.80
67196;DHT22;54122;53.538;49.366;2022-09-27T17:11:22;11.30;74.80
67196;DHT22;54122;53.538;49.366;2022-09-27T17:13:54;11.30;74.70
67196;DHT22;54122;53.538;49.366;2022-09-27T17:16:21;11.30;74.70
67196;DHT22;54122;53.538;49.366;2022-09-27T17:18:47;11.30;74.80
67196;DHT22;54122;53.538;49.366;2022-09-27T17:21:13;11.30;74.90
67196;DHT22;54122;53.538;49.366;2022-09-27T17:23:39;11.30;75.00
67196;DHT22;54122;53.538;49.366;2022-09-27T17:26:13;11.30;75.00
67196;DHT22;54122;53.538;49.366;2022-09-27T17:28:39;11.30;75.00
67196;DHT22;54122;53.538;49.366;2022-09-27T17:31:08;11.30;75.10
67196;DHT22;54122;53.538;49.366;2022-09-27T17:33:48;11.30;75.20
67196;DHT22;54122;53.538;49.366;2022-09-27T17:36:16;11.30;75.20
67196;DHT22;54122;53.538;49.366;2022-09-27T17:38:43;11.40;75.30
67196;DHT22;54122;53.538;49.366;2022-09-27T17:41:10;11.40;75.30
67196;DHT22;54122;53.538;49.366;2022-09-27T17:43:37;11.40;75.60
67196;DHT22;54122;53.538;49.366;2022-09-27T17:46:08;11.40;75.70
67196;DHT22;54122;53.538;49.366;2022-09-27T17:48:35;11.50;75.70
67196;DHT22;54122;53.538;49.366;2022-09-27T17:51:22;11.50;75.70
67196;DHT22;54122;53.538;49.366;2022-09-27T17:53:49;11.50;75.70
67196;DHT22;54122;53.538;49.366;2022-09-27T17:56:15;11.60;75.80
67196;DHT22;54122;53.538;49.366;2022-09-27T17:58:45;11.60;75.70
67196;DHT22;54122;53.538;49.366;2022-09-27T18:01:12;11.70;75.70
67196;DHT22;54122;53.538;49.366;2022-09-27T18:03:38;11.70;75.90
67196;DHT22;54122;53.538;49.366;2022-09-27T18:06:08;11.70;75.70
67196;DHT22;54122;53.538;49.366;2022-09-27T18:08:35;11.70;75.80
67196;DHT22;54122;53.538;49.366;2022-09-27T18:11:04;11.70;75.70
67196;DHT22;54122;53.538;49.366;2022-09-27T18:13:31;11.80;75.90
67196;DHT22;54122;53.538;49.366;2022-09-27T18:16:03;11.80;76.10
67196;DHT22;54122;53.538;49.366;2022-09-27T18:18:30;11.80;76.00
67196;DHT22;54122;53.538;49.366;2022-09-27T18:21:01;11.80;76.30